createdAt,value
2022-10-18T00:00:58.020Z,3.38
2022-10-18T00:03:25.822Z,3.30
2022-10-18T00:05:53.812Z,3.13
2022-10-18T00:08:22.891Z,2.97
2022-10-18T00:10:51.217Z,3.58
2022-10-18T00:13:19.149Z,3.17
2022-10-18T00:15:51.286Z,4.82
2022-10-18T00:18:19.562Z,3.15
2022-10-18T00:20:56.769Z,4.53
2022-10-18T00:23:26.051Z,4.80
2022-10-18T00:26:00.666Z,5.45
2022-10-18T00:28:28.885Z,4.63
2022-10-18T00:30:56.702Z,4.90
2022-10-18T00:33:24.511Z,3.83
2022-10-18T00:35:52.194Z,5.35
2022-10-18T00:38:19.960Z,4.40
2022-10-18T00:40:49.019Z,5.50
2022-10-18T00:43:19.200Z,4.88
2022-10-18T00:45:46.930Z,4.40
2022-10-18T00:48:16.453Z,3.72
2022-10-18T00:50:44.598Z,4.07
2022-10-18T00:53:17.285Z,4.40
2022-10-18T00:55:45.416Z,3.67
2022-10-18T00:58:17.991Z,4.32
2022-10-18T01:00:45.861Z,4.75
2022-10-18T01:03:13.604Z,3.78
2022-10-18T01:05:44.926Z,3.55
2022-10-18T01:08:29.816Z,3.25
2022-10-18T01:11:11.025Z,3.47
2022-10-18T01:13:51.341Z,3.90
2022-10-18T01:16:28.218Z,3.20
2022-10-18T01:19:02.579Z,4.38
2022-10-18T01:21:39.301Z,3.72
2022-10-18T01:24:44.948Z,3.67
2022-10-18T01:27:28.960Z,2.85
2022-10-18T01:30:13.463Z,4.15
2022-10-18T01:32:48.293Z,3.83
2022-10-18T01:35:21.040Z,5.03
2022-10-18T01:37:51.823Z,5.63
2022-10-18T01:40:21.918Z,3.40
2022-10-18T01:42:50.907Z,3.53
2022-10-18T01:45:20.092Z,3.47
2022-10-18T01:47:50.605Z,3.13
2022-10-18T01:50:29.613Z,3.75
2022-10-18T01:52:57.576Z,3.17
2022-10-18T01:55:30.413Z,2.67
2022-10-18T01:58:06.922Z,3.78
2022-10-18T02:00:42.069Z,3.75
2022-10-18T02:03:18.630Z,3.35
2022-10-18T02:05:52.729Z,3.95
2022-10-18T02:08:29.717Z,5.05
2022-10-18T02:11:01.915Z,6.65
2022-10-18T02:13:34.682Z,6.30
2022-10-18T02:16:07.193Z,4.68
2022-10-18T02:18:41.397Z,4.22
2022-10-18T02:21:12.499Z,5.95
2022-10-18T02:23:40.468Z,5.35
2022-10-18T02:26:08.412Z,4.82
2022-10-18T02:28:36.221Z,6.25
2022-10-18T02:31:12.755Z,6.28
2022-10-18T02:33:48.907Z,5.05
2022-10-18T02:36:21.063Z,4.00
2022-10-18T02:38:51.917Z,5.05
2022-10-18T02:41:24.081Z,6.03
2022-10-18T02:43:51.827Z,4.78
2022-10-18T02:46:19.708Z,4.55
2022-10-18T02:48:48.856Z,4.90
2022-10-18T02:51:16.570Z,3.10
2022-10-18T02:53:44.313Z,3.38
2022-10-18T02:56:12.035Z,5.90
2022-10-18T02:58:39.760Z,3.10
2022-10-18T03:01:07.547Z,3.55
2022-10-18T03:03:35.289Z,4.15
2022-10-18T03:06:04.465Z,2.17
2022-10-18T03:08:32.169Z,3.55
2022-10-18T03:10:59.965Z,3.90
2022-10-18T03:13:27.633Z,4.05
2022-10-18T03:15:55.401Z,4.22
2022-10-18T03:18:23.061Z,3.55
2022-10-18T03:20:50.814Z,3.35
2022-10-18T03:23:19.842Z,4.30
2022-10-18T03:25:47.597Z,5.15
2022-10-18T03:28:15.326Z,4.13
2022-10-18T03:30:43.074Z,4.80
2022-10-18T03:33:10.757Z,4.05
2022-10-18T03:35:38.526Z,5.20
2022-10-18T03:38:06.185Z,4.90
2022-10-18T03:40:35.301Z,4.32
2022-10-18T03:43:02.979Z,4.40
2022-10-18T03:45:31.532Z,4.80
2022-10-18T03:47:59.534Z,4.40
2022-10-18T03:50:27.231Z,4.80
2022-10-18T03:52:55.460Z,5.32
2022-10-18T03:55:23.454Z,4.55
2022-10-18T03:57:52.499Z,3.88
2022-10-18T04:00:20.362Z,4.00
2022-10-18T04:02:51.912Z,4.50
2022-10-18T04:05:23.918Z,4.15
2022-10-18T04:07:51.656Z,4.90
2022-10-18T04:10:19.838Z,4.28
2022-10-18T04:12:47.530Z,3.88
2022-10-18T04:15:16.797Z,4.72
2022-10-18T04:17:44.535Z,3.85
2022-10-18T04:20:13.293Z,4.28
2022-10-18T04:22:40.987Z,3.83
2022-10-18T04:25:09.001Z,3.20
2022-10-18T04:27:36.910Z,4.20
2022-10-18T04:30:05.195Z,4.00
2022-10-18T04:32:35.368Z,4.13
2022-10-18T04:35:03.418Z,4.47
2022-10-18T04:37:31.577Z,2.67
2022-10-18T04:39:59.522Z,2.80
2022-10-18T04:42:27.182Z,3.25
2022-10-18T04:44:54.954Z,3.60
2022-10-18T04:47:22.721Z,3.40
2022-10-18T04:49:51.775Z,3.47
2022-10-18T04:52:19.470Z,3.53
2022-10-18T04:54:47.155Z,2.85
2022-10-18T04:57:14.977Z,2.40
2022-10-18T04:59:42.643Z,3.75
2022-10-18T05:02:10.338Z,2.92
2022-10-18T05:04:38.063Z,2.65
2022-10-18T05:07:07.227Z,2.80
2022-10-18T05:09:35.017Z,2.58
2022-10-18T05:12:02.698Z,2.20
2022-10-18T05:14:30.412Z,2.85
2022-10-18T05:16:58.137Z,3.10
2022-10-18T05:19:25.931Z,2.97
2022-10-18T05:21:53.670Z,2.40
2022-10-18T05:24:25.453Z,2.20
2022-10-18T05:26:55.409Z,2.72
2022-10-18T05:29:23.259Z,3.28
2022-10-18T05:31:51.205Z,2.63
2022-10-18T05:34:20.604Z,2.35
2022-10-18T05:36:49.401Z,3.10
2022-10-18T05:39:17.105Z,2.80
2022-10-18T05:41:46.185Z,2.47
2022-10-18T05:44:13.892Z,1.98
2022-10-18T05:46:41.614Z,2.33
2022-10-18T05:49:11.202Z,2.58
2022-10-18T05:51:38.987Z,2.90
2022-10-18T05:54:06.742Z,2.90
2022-10-18T05:56:34.526Z,2.78
2022-10-18T05:59:05.038Z,3.22
2022-10-18T06:01:32.719Z,3.63
2022-10-18T06:04:00.448Z,2.53
2022-10-18T06:06:28.202Z,3.17
2022-10-18T06:08:55.922Z,3.67
2022-10-18T06:11:23.586Z,3.05
2022-10-18T06:13:52.921Z,2.97
2022-10-18T06:16:26.201Z,2.40
2022-10-18T06:18:59.782Z,2.45
2022-10-18T06:21:27.601Z,3.33
2022-10-18T06:23:57.600Z,3.45
2022-10-18T06:26:26.646Z,2.70
2022-10-18T06:28:54.562Z,3.63
2022-10-18T06:31:23.804Z,3.40
2022-10-18T06:33:51.566Z,3.45
2022-10-18T06:36:22.001Z,3.28
2022-10-18T06:38:50.556Z,3.50
2022-10-18T06:41:19.192Z,3.15
2022-10-18T06:43:49.800Z,3.97
2022-10-18T06:46:17.753Z,3.28
2022-10-18T06:48:47.385Z,3.20
2022-10-18T06:51:15.209Z,2.45
2022-10-18T06:53:59.297Z,3.47
2022-10-18T06:56:31.560Z,3.97
2022-10-18T07:01:32.111Z,2.95
2022-10-18T07:04:01.269Z,4.40
2022-10-18T07:06:29.074Z,3.30
2022-10-18T07:08:57.250Z,4.28
2022-10-18T07:11:27.114Z,3.03
2022-10-18T07:14:00.691Z,4.25
2022-10-18T07:16:28.473Z,3.72
2022-10-18T07:18:56.250Z,4.32
2022-10-18T07:21:27.105Z,3.97
2022-10-18T07:23:55.002Z,3.42
2022-10-18T07:26:25.201Z,3.78
2022-10-18T07:28:55.741Z,2.90
2022-10-18T07:31:24.313Z,3.80
2022-10-18T07:33:52.175Z,4.55
2022-10-18T07:36:21.162Z,2.60
2022-10-18T07:38:51.824Z,4.32
2022-10-18T07:41:20.273Z,3.83
2022-10-18T07:43:50.732Z,3.22
2022-10-18T07:46:19.280Z,3.60
2022-10-18T07:48:47.180Z,3.80
2022-10-18T07:51:15.340Z,3.90
2022-10-18T07:53:43.325Z,3.13
2022-10-18T07:56:16.272Z,3.45
2022-10-18T07:58:44.509Z,2.80
2022-10-18T08:01:12.377Z,3.58
2022-10-18T08:03:40.830Z,3.00
2022-10-18T08:06:10.824Z,2.58
2022-10-18T08:08:39.850Z,2.33
2022-10-18T08:11:09.715Z,3.38
2022-10-18T08:13:38.904Z,2.88
2022-10-18T08:16:08.445Z,2.42
2022-10-18T08:18:37.025Z,2.22
2022-10-18T08:21:06.765Z,2.60
2022-10-18T08:23:35.638Z,3.22
2022-10-18T08:26:04.227Z,3.47
2022-10-18T08:28:31.983Z,2.88
2022-10-18T08:31:04.904Z,2.42
2022-10-18T08:33:32.789Z,3.35
2022-10-18T08:36:02.071Z,2.30
2022-10-18T08:38:31.555Z,2.83
2022-10-18T08:41:01.041Z,2.78
2022-10-18T08:46:13.620Z,3.05
2022-10-18T08:48:45.281Z,2.47
2022-10-18T08:51:23.427Z,2.22
2022-10-18T08:53:58.110Z,1.90
2022-10-18T08:56:26.840Z,3.15
2022-10-18T08:58:54.516Z,2.50
2022-10-18T09:01:36.318Z,2.67
2022-10-18T09:04:34.839Z,2.95
2022-10-18T09:07:24.026Z,1.55
2022-10-18T09:09:56.980Z,1.70
2022-10-18T09:12:52.491Z,2.47
2022-10-18T09:15:29.330Z,2.33
2022-10-18T09:18:14.516Z,2.38
2022-10-18T09:20:51.076Z,2.15
2022-10-18T09:23:21.453Z,2.35
2022-10-18T09:25:51.141Z,2.92
2022-10-18T09:28:33.250Z,2.08
2022-10-18T09:31:08.196Z,2.47
2022-10-18T09:33:44.930Z,1.90
2022-10-18T09:36:18.741Z,2.90
2022-10-18T09:38:49.478Z,2.20
2022-10-18T09:41:21.674Z,2.22
2022-10-18T09:43:53.921Z,2.60
2022-10-18T09:46:26.138Z,3.05
2022-10-18T09:49:00.864Z,2.33
2022-10-18T09:51:34.737Z,2.78
2022-10-18T09:54:15.088Z,2.72
2022-10-18T09:56:48.436Z,2.67
2022-10-18T09:59:30.989Z,1.92
2022-10-18T10:01:58.635Z,2.47
2022-10-18T10:04:27.842Z,2.25
2022-10-18T10:06:57.511Z,2.30
2022-10-18T10:09:29.441Z,2.53
2022-10-18T10:11:58.382Z,1.90
2022-10-18T10:14:27.960Z,2.25
2022-10-18T10:16:58.689Z,2.75
2022-10-18T10:19:33.702Z,1.75
2022-10-18T10:22:06.495Z,2.60
2022-10-18T10:24:40.010Z,2.45
2022-10-18T10:27:17.653Z,2.35
2022-10-18T10:30:02.761Z,1.73
2022-10-18T10:32:47.057Z,2.22
2022-10-18T10:35:41.406Z,2.55
2022-10-18T10:38:23.940Z,2.25
2022-10-18T10:40:52.036Z,2.10
2022-10-18T10:43:36.961Z,2.75
2022-10-18T10:46:09.656Z,3.60
2022-10-18T10:48:46.568Z,3.13
2022-10-18T10:51:18.669Z,2.95
2022-10-18T10:53:52.236Z,2.13
2022-10-18T10:56:25.129Z,3.03
2022-10-18T10:58:54.892Z,3.15
2022-10-18T11:01:32.189Z,2.42
2022-10-18T11:04:02.558Z,2.20
2022-10-18T11:06:46.178Z,2.45
2022-10-18T11:09:25.410Z,2.28
2022-10-18T11:12:02.545Z,2.28
2022-10-18T11:14:35.914Z,2.40
2022-10-18T11:17:12.956Z,1.85
2022-10-18T11:19:51.223Z,2.03
2022-10-18T11:22:26.874Z,2.28
2022-10-18T11:24:54.733Z,2.53
2022-10-18T11:27:29.177Z,2.20
2022-10-18T11:30:19.291Z,2.42
2022-10-18T11:32:59.433Z,2.60
2022-10-18T11:35:40.475Z,3.53
2022-10-18T11:38:22.500Z,2.38
2022-10-18T11:41:02.171Z,3.15
2022-10-18T11:44:00.485Z,3.00
2022-10-18T11:46:47.929Z,2.55
2022-10-18T11:49:47.201Z,3.17
2022-10-18T11:52:22.273Z,2.92
2022-10-18T11:55:02.537Z,2.90
2022-10-18T11:57:44.498Z,2.72
2022-10-18T12:00:40.397Z,3.90
2022-10-18T12:03:26.440Z,3.75
2022-10-18T12:05:56.603Z,4.00
2022-10-18T12:08:29.209Z,4.13
2022-10-18T12:11:05.740Z,3.55
2022-10-18T12:13:37.802Z,3.00
2022-10-18T12:16:07.890Z,4.13
2022-10-18T12:21:30.241Z,3.60
2022-10-18T12:24:02.392Z,3.70
2022-10-18T12:26:34.012Z,3.38
2022-10-18T12:29:14.124Z,3.33
2022-10-18T12:31:46.747Z,3.08
2022-10-18T12:34:27.141Z,2.92
2022-10-18T12:37:21.282Z,3.65
2022-10-18T12:42:45.059Z,3.00
2022-10-18T12:45:26.154Z,3.05
2022-10-18T12:47:54.435Z,3.20
2022-10-18T12:50:30.337Z,3.42
2022-10-18T12:53:18.058Z,2.75
2022-10-18T12:55:47.606Z,3.15
2022-10-18T12:58:32.010Z,2.83
2022-10-18T13:01:06.963Z,2.85
2022-10-18T13:04:00.386Z,2.63
2022-10-18T13:07:07.871Z,3.50
2022-10-18T13:09:38.606Z,2.92
2022-10-18T13:12:51.248Z,3.10
2022-10-18T13:15:38.690Z,2.22
2022-10-18T13:18:19.698Z,2.92
2022-10-18T13:20:55.393Z,2.90
2022-10-18T13:23:38.395Z,3.00
2022-10-18T13:26:18.647Z,2.80
2022-10-18T13:28:54.889Z,3.33
2022-10-18T13:31:29.259Z,2.85
2022-10-18T13:34:17.306Z,3.10
2022-10-18T13:36:45.164Z,3.30
2022-10-18T13:39:21.140Z,2.65
2022-10-18T13:42:29.557Z,3.67
2022-10-18T13:45:38.798Z,3.33
2022-10-18T13:48:42.467Z,3.42
2022-10-18T13:51:31.422Z,3.53
2022-10-18T13:54:05.585Z,3.85
2022-10-18T13:57:11.343Z,2.85
2022-10-18T13:59:53.004Z,3.53
2022-10-18T14:02:51.828Z,3.40
2022-10-18T14:05:42.910Z,3.42
2022-10-18T14:08:17.781Z,3.22
2022-10-18T14:11:02.544Z,3.13
2022-10-18T14:13:39.834Z,2.45
2022-10-18T14:16:11.909Z,2.42
2022-10-18T14:18:43.746Z,3.17
2022-10-18T14:21:22.036Z,2.45
2022-10-18T14:23:52.058Z,2.75
2022-10-18T14:26:22.781Z,2.90
2022-10-18T14:29:04.228Z,3.20
2022-10-18T14:31:32.133Z,3.72
2022-10-18T14:34:00.480Z,2.70
2022-10-18T14:36:31.702Z,3.17
2022-10-18T14:39:02.515Z,3.58
2022-10-18T14:41:31.529Z,3.03
2022-10-18T14:44:18.483Z,2.40
2022-10-18T14:46:48.326Z,2.47
2022-10-18T14:49:17.096Z,2.97
2022-10-18T14:51:46.591Z,3.30
2022-10-18T14:54:18.449Z,3.58
2022-10-18T14:56:46.939Z,3.17
2022-10-18T14:59:20.238Z,3.42
2022-10-18T15:01:54.910Z,2.45
2022-10-18T15:04:27.777Z,3.28
2022-10-18T15:06:56.908Z,3.50
2022-10-18T15:09:26.414Z,2.83
2022-10-18T15:11:57.736Z,2.97
2022-10-18T15:14:28.364Z,3.72
2022-10-18T15:17:01.029Z,3.80
2022-10-18T15:19:34.187Z,4.03
2022-10-18T15:22:30.201Z,4.03
2022-10-18T15:25:12.638Z,4.35
2022-10-18T15:30:16.402Z,3.72
2022-10-18T15:32:50.502Z,4.35
2022-10-18T15:35:25.697Z,3.72
2022-10-18T15:37:54.623Z,3.95
2022-10-18T15:40:40.720Z,3.58
2022-10-18T15:43:37.113Z,2.70
2022-10-18T15:46:06.907Z,2.88
2022-10-18T15:48:38.835Z,3.33
2022-10-18T15:51:08.020Z,2.85
2022-10-18T15:53:46.789Z,3.60
2022-10-18T15:56:31.813Z,3.15
2022-10-18T15:59:01.137Z,3.40
2022-10-18T16:01:35.392Z,3.35
2022-10-18T16:04:08.990Z,3.25
2022-10-18T16:06:38.510Z,3.50
2022-10-18T16:09:06.613Z,2.92
2022-10-18T16:11:35.640Z,2.90
2022-10-18T16:14:03.481Z,3.30
2022-10-18T16:16:31.451Z,3.30
2022-10-18T16:18:59.369Z,3.95
2022-10-18T16:21:29.357Z,2.65
2022-10-18T16:23:57.639Z,2.70
2022-10-18T16:26:26.329Z,2.78
2022-10-18T16:28:57.146Z,2.83
2022-10-18T16:31:26.920Z,3.17
2022-10-18T16:33:55.856Z,2.47
2022-10-18T16:36:25.923Z,2.65
2022-10-18T16:38:54.904Z,3.97
2022-10-18T16:41:22.994Z,3.10
2022-10-18T16:43:51.417Z,4.45
2022-10-18T16:46:22.896Z,3.67
2022-10-18T16:48:52.469Z,3.78
2022-10-18T16:51:20.930Z,3.33
2022-10-18T16:53:48.945Z,2.72
2022-10-18T16:56:18.885Z,2.50
2022-10-18T16:58:47.349Z,3.40
2022-10-18T17:01:16.927Z,3.15
2022-10-18T17:03:46.271Z,3.08
2022-10-18T17:06:17.878Z,3.17
2022-10-18T17:08:46.165Z,3.10
2022-10-18T17:11:15.812Z,4.18
2022-10-18T17:13:43.915Z,3.55
2022-10-18T17:16:24.067Z,3.45
2022-10-18T17:18:53.354Z,3.67
2022-10-18T17:21:21.273Z,3.75
2022-10-18T17:23:49.497Z,4.03
2022-10-18T17:26:34.016Z,4.93
2022-10-18T17:29:04.678Z,4.45
2022-10-18T17:31:33.201Z,5.28
2022-10-18T17:34:02.413Z,4.72
2022-10-18T17:36:30.910Z,6.57
2022-10-18T17:38:59.133Z,4.53
2022-10-18T17:41:27.175Z,5.40
2022-10-18T17:43:54.981Z,5.18
2022-10-18T17:46:23.605Z,6.28
2022-10-18T17:48:51.384Z,5.55
2022-10-18T17:51:20.436Z,5.40
2022-10-18T17:53:48.294Z,5.43
2022-10-18T17:56:16.795Z,4.32
2022-10-18T17:58:45.267Z,5.38
2022-10-18T18:01:15.045Z,4.43
2022-10-18T18:03:42.889Z,5.28
2022-10-18T18:06:18.602Z,5.05
2022-10-18T18:08:48.708Z,5.28
2022-10-18T18:11:18.125Z,5.35
2022-10-18T18:13:46.038Z,5.68
2022-10-18T18:16:16.448Z,4.70
2022-10-18T18:18:44.347Z,4.03
2022-10-18T18:21:12.637Z,4.35
2022-10-18T18:23:40.553Z,4.13
2022-10-18T18:26:10.317Z,3.95
2022-10-18T18:28:38.379Z,3.08
2022-10-18T18:31:07.545Z,3.70
2022-10-18T18:33:35.482Z,4.18
2022-10-18T18:36:04.789Z,3.70
2022-10-18T18:38:33.377Z,4.15
2022-10-18T18:41:06.050Z,3.25
2022-10-18T18:43:35.606Z,3.60
2022-10-18T18:46:03.391Z,3.25
2022-10-18T18:48:33.224Z,3.38
2022-10-18T18:51:01.457Z,3.78
2022-10-18T18:53:29.935Z,3.47
2022-10-18T18:56:02.875Z,3.97
2022-10-18T18:58:30.561Z,2.92
2022-10-18T19:00:59.673Z,3.72
2022-10-18T19:03:27.407Z,3.33
2022-10-18T19:06:03.563Z,3.60
2022-10-18T19:08:31.232Z,3.45
2022-10-18T19:10:58.978Z,5.03
2022-10-18T19:13:26.654Z,3.28
2022-10-18T19:16:18.073Z,3.28
2022-10-18T19:18:51.475Z,3.00
2022-10-18T19:21:19.989Z,3.05
2022-10-18T19:23:47.754Z,3.63
2022-10-18T19:26:24.629Z,3.25
2022-10-18T19:28:52.931Z,3.50
2022-10-18T19:31:22.401Z,3.08
2022-10-18T19:33:59.432Z,3.25
2022-10-18T19:36:27.912Z,3.28
2022-10-18T19:38:55.680Z,2.83
2022-10-18T19:43:51.377Z,4.78
2022-10-18T19:46:19.183Z,3.17
2022-10-18T19:48:48.288Z,3.80
2022-10-18T19:51:20.895Z,3.90
2022-10-18T19:53:51.802Z,4.25
2022-10-18T19:56:21.605Z,3.40
2022-10-18T19:58:49.795Z,3.85
2022-10-18T20:01:18.388Z,3.10
2022-10-18T20:03:48.481Z,2.92
2022-10-18T20:06:16.982Z,3.55
2022-10-18T20:08:44.828Z,3.85
2022-10-18T20:11:14.923Z,4.18
2022-10-18T20:13:42.894Z,3.30
2022-10-18T20:16:12.571Z,3.60
2022-10-18T20:18:42.934Z,3.30
2022-10-18T20:21:13.569Z,4.10
2022-10-18T20:23:42.566Z,3.72
2022-10-18T20:26:18.311Z,2.65
2022-10-18T20:28:49.246Z,3.50
2022-10-18T20:31:19.588Z,3.55
2022-10-18T20:33:48.648Z,3.05
2022-10-18T20:36:19.802Z,2.92
2022-10-18T20:38:48.984Z,3.10
2022-10-18T20:41:19.113Z,3.22
2022-10-18T20:43:52.022Z,3.13
2022-10-18T20:46:19.709Z,3.58
2022-10-18T20:48:47.765Z,4.15
2022-10-18T20:51:17.213Z,4.22
2022-10-18T20:53:45.369Z,2.72
2022-10-18T20:56:14.901Z,3.50
2022-10-18T20:58:44.869Z,2.65
2022-10-18T21:01:14.691Z,3.78
2022-10-18T21:03:43.993Z,3.55
2022-10-18T21:06:13.231Z,3.83
2022-10-18T21:08:43.245Z,3.35
2022-10-18T21:11:11.306Z,4.78
2022-10-18T21:13:40.730Z,2.88
2022-10-18T21:16:08.836Z,2.85
2022-10-18T21:18:40.266Z,3.65
2022-10-18T21:21:09.956Z,3.40
2022-10-18T21:23:37.801Z,3.58
2022-10-18T21:26:07.920Z,2.92
2022-10-18T21:28:35.952Z,3.92
2022-10-18T21:31:12.643Z,3.33
2022-10-18T21:33:40.757Z,3.75
2022-10-18T21:36:09.119Z,4.38
2022-10-18T21:38:37.058Z,4.05
2022-10-18T21:41:10.856Z,3.70
2022-10-18T21:43:41.414Z,3.97
2022-10-18T21:46:10.953Z,4.10
2022-10-18T21:48:39.738Z,3.47
2022-10-18T21:51:08.588Z,3.80
2022-10-18T21:53:36.989Z,3.97
2022-10-18T21:56:06.246Z,4.30
2022-10-18T21:58:35.582Z,3.90
2022-10-18T22:01:07.131Z,3.95
2022-10-18T22:03:35.004Z,3.85
2022-10-18T22:06:04.920Z,3.65
2022-10-18T22:08:32.571Z,4.72
2022-10-18T22:11:01.025Z,4.47
2022-10-18T22:13:28.750Z,5.30
2022-10-18T22:16:00.997Z,3.42
2022-10-18T22:18:28.697Z,4.27
2022-10-18T22:20:56.854Z,5.15
2022-10-18T22:23:24.682Z,4.63
2022-10-18T22:25:52.405Z,5.57
2022-10-18T22:28:20.077Z,4.45
2022-10-18T22:30:48.201Z,4.40
2022-10-18T22:33:17.261Z,5.38
2022-10-18T22:35:50.015Z,4.30
2022-10-18T22:38:17.845Z,5.20
2022-10-18T22:40:45.629Z,4.22
2022-10-18T22:43:13.498Z,4.40
2022-10-18T22:45:41.341Z,5.25
2022-10-18T22:48:09.073Z,4.80
2022-10-18T22:50:38.125Z,4.13
2022-10-18T22:53:05.895Z,3.45
2022-10-18T22:55:33.624Z,4.70
2022-10-18T22:58:01.318Z,3.50
2022-10-18T23:00:29.313Z,3.55
2022-10-18T23:02:57.117Z,3.72
2022-10-18T23:05:24.837Z,4.70
2022-10-18T23:07:53.945Z,3.92
2022-10-18T23:10:21.641Z,4.40
2022-10-18T23:12:49.285Z,4.25
2022-10-18T23:15:17.074Z,4.95
2022-10-18T23:17:44.741Z,3.90
2022-10-18T23:20:12.511Z,3.38
2022-10-18T23:22:40.202Z,4.50
2022-10-18T23:25:10.166Z,4.00
2022-10-18T23:27:37.932Z,3.67
2022-10-18T23:30:06.913Z,4.63
2022-10-18T23:32:34.918Z,4.07
2022-10-18T23:35:02.891Z,4.25
2022-10-18T23:37:30.828Z,3.83
2022-10-18T23:39:58.672Z,3.58
2022-10-18T23:42:27.735Z,4.03
2022-10-18T23:44:55.522Z,4.18
2022-10-18T23:47:23.210Z,3.47
2022-10-18T23:49:50.956Z,4.47
2022-10-18T23:52:18.613Z,3.33
2022-10-18T23:54:46.364Z,4.30
2022-10-18T23:57:14.023Z,4.07
2022-10-18T23:59:43.120Z,3.40
